createdAt,value
2022-11-24T00:00:13.274Z,4.47
2022-11-24T00:02:53.223Z,4.45
2022-11-24T00:05:25.479Z,4.07
2022-11-24T00:07:52.442Z,4.93
2022-11-24T00:10:19.079Z,4.40
2022-11-24T00:12:45.730Z,4.78
2022-11-24T00:15:12.725Z,4.93
2022-11-24T00:17:39.319Z,4.50
2022-11-24T00:20:06.512Z,4.80
2022-11-24T00:22:33.277Z,5.00
2022-11-24T00:24:59.868Z,5.57
2022-11-24T00:27:26.414Z,5.78
2022-11-24T00:29:53.088Z,5.40
2022-11-24T00:32:19.709Z,5.18
2022-11-24T00:34:47.062Z,4.95
2022-11-24T00:37:13.624Z,4.13
2022-11-24T00:39:40.135Z,4.82
2022-11-24T00:42:06.815Z,4.10
2022-11-24T00:44:54.670Z,4.55
2022-11-24T00:47:36.390Z,4.20
2022-11-24T00:50:25.266Z,4.30
2022-11-24T00:53:07.362Z,3.40
2022-11-24T00:58:13.152Z,3.58
2022-11-24T01:00:41.391Z,3.33
2022-11-24T01:03:19.247Z,3.33
2022-11-24T01:05:54.399Z,3.20
2022-11-24T01:08:21.200Z,3.25
2022-11-24T01:10:47.755Z,3.28
2022-11-24T01:13:36.553Z,3.45
2022-11-24T01:16:24.567Z,3.15
2022-11-24T01:18:56.719Z,3.17
2022-11-24T01:21:31.838Z,3.50
2022-11-24T01:24:01.539Z,3.33
2022-11-24T01:26:37.506Z,3.65
2022-11-24T01:29:12.365Z,3.40
2022-11-24T01:31:48.040Z,3.67
2022-11-24T01:34:16.423Z,3.47
2022-11-24T01:36:56.231Z,3.33
2022-11-24T01:39:30.590Z,3.80
2022-11-24T01:42:11.725Z,3.58
2022-11-24T01:44:48.370Z,4.05
2022-11-24T01:47:37.981Z,3.92
2022-11-24T01:50:16.930Z,3.67
2022-11-24T01:52:57.096Z,3.70
2022-11-24T01:55:33.727Z,3.53
2022-11-24T01:58:31.363Z,3.13
2022-11-24T02:01:08.849Z,3.05
2022-11-24T02:03:39.822Z,3.30
2022-11-24T02:06:14.003Z,3.17
2022-11-24T02:08:53.149Z,3.03
2022-11-24T02:11:22.720Z,2.90
2022-11-24T02:13:51.855Z,2.67
2022-11-24T02:16:27.212Z,2.90
2022-11-24T02:18:53.979Z,3.03
2022-11-24T02:21:20.573Z,3.35
2022-11-24T02:23:47.116Z,3.10
2022-11-24T02:26:46.141Z,2.75
2022-11-24T02:29:14.354Z,2.97
2022-11-24T02:31:46.877Z,2.83
2022-11-24T02:36:39.946Z,2.55
2022-11-24T02:39:16.375Z,2.47
2022-11-24T02:41:49.424Z,3.30
2022-11-24T02:44:19.725Z,2.97
2022-11-24T02:46:46.375Z,2.42
2022-11-24T02:49:13.541Z,2.90
2022-11-24T02:51:40.080Z,2.65
2022-11-24T02:54:06.807Z,2.75
2022-11-24T02:56:33.592Z,3.08
2022-11-24T03:01:55.123Z,2.90
2022-11-24T03:04:35.075Z,3.45
2022-11-24T03:07:14.724Z,3.10
2022-11-24T03:10:12.425Z,3.28
2022-11-24T03:12:41.389Z,3.08
2022-11-24T03:15:09.772Z,2.90
2022-11-24T03:17:39.430Z,2.95
2022-11-24T03:20:15.340Z,3.03
2022-11-24T03:22:48.051Z,2.97
2022-11-24T03:25:18.715Z,3.15
2022-11-24T03:27:48.651Z,2.85
2022-11-24T03:30:15.775Z,3.50
2022-11-24T03:32:43.514Z,3.45
2022-11-24T03:35:14.007Z,3.42
2022-11-24T03:37:49.554Z,3.58
2022-11-24T03:40:18.413Z,3.22
2022-11-24T03:42:47.086Z,3.67
2022-11-24T03:45:44.177Z,3.55
2022-11-24T03:48:07.710Z,3.45
2022-11-24T03:50:37.300Z,2.90
2022-11-24T03:53:19.512Z,3.75
2022-11-24T03:56:15.438Z,3.53
2022-11-24T03:58:52.140Z,4.15
2022-11-24T04:04:35.119Z,4.13
2022-11-24T04:07:05.499Z,3.42
2022-11-24T04:09:48.222Z,4.30
2022-11-24T04:12:41.505Z,3.40
2022-11-24T04:15:12.909Z,4.28
2022-11-24T04:17:47.744Z,4.15
2022-11-24T04:20:19.646Z,4.05
2022-11-24T04:23:12.506Z,4.57
2022-11-24T04:25:43.516Z,3.30
2022-11-24T04:28:20.029Z,3.83
2022-11-24T04:30:55.772Z,4.60
2022-11-24T04:33:24.119Z,4.70
2022-11-24T04:35:57.843Z,3.72
2022-11-24T04:39:20.096Z,5.38
2022-11-24T04:41:53.636Z,3.65
2022-11-24T04:44:36.192Z,3.50
2022-11-24T04:47:29.350Z,6.03
2022-11-24T04:50:28.551Z,4.32
2022-11-24T04:53:06.181Z,7.15
2022-11-24T04:55:38.087Z,5.30
2022-11-24T04:58:10.457Z,5.45
2022-11-24T05:00:44.390Z,4.60
2022-11-24T05:03:20.298Z,4.32
2022-11-24T05:05:51.912Z,8.20
2022-11-24T05:08:22.540Z,6.07
2022-11-24T05:10:53.580Z,7.43
2022-11-24T05:13:24.822Z,4.70
2022-11-24T05:15:57.748Z,7.15
2022-11-24T05:18:30.815Z,7.65
2022-11-24T05:21:02.683Z,8.65
2022-11-24T05:23:45.134Z,8.40
2022-11-24T05:26:15.530Z,6.82
2022-11-24T05:28:48.215Z,7.40
2022-11-24T05:31:15.088Z,5.40
2022-11-24T05:33:49.198Z,6.22
2022-11-24T05:36:36.297Z,8.90
2022-11-24T05:39:03.493Z,5.63
2022-11-24T05:41:42.274Z,5.63
2022-11-24T05:44:15.058Z,9.20
2022-11-24T05:46:47.725Z,8.40
2022-11-24T05:49:17.182Z,7.78
2022-11-24T05:51:44.502Z,7.75
2022-11-24T05:54:30.104Z,7.10
2022-11-24T05:57:00.641Z,7.43
2022-11-24T05:59:32.552Z,7.63
2022-11-24T06:02:00.861Z,6.95
2022-11-24T06:04:28.878Z,7.10
2022-11-24T06:06:59.316Z,6.47
2022-11-24T06:09:27.238Z,6.93
2022-11-24T06:11:54.319Z,6.95
2022-11-24T06:14:30.069Z,7.13
2022-11-24T06:17:00.031Z,7.00
2022-11-24T06:19:30.917Z,6.95
2022-11-24T06:22:03.658Z,7.03
2022-11-24T06:24:44.270Z,7.30
2022-11-24T06:27:13.383Z,6.82
2022-11-24T06:29:51.255Z,6.95
2022-11-24T06:32:19.709Z,7.15
2022-11-24T06:34:46.774Z,6.75
2022-11-24T06:37:13.857Z,7.50
2022-11-24T06:39:46.850Z,6.70
2022-11-24T06:42:15.079Z,6.97
2022-11-24T06:44:42.274Z,6.55
2022-11-24T06:47:10.489Z,6.80
2022-11-24T06:49:42.982Z,6.65
2022-11-24T06:54:46.244Z,6.30
2022-11-24T06:57:31.923Z,6.40
2022-11-24T07:00:01.047Z,6.80
2022-11-24T07:02:31.064Z,6.50
2022-11-24T07:05:04.871Z,6.00
2022-11-24T07:07:31.498Z,6.15
2022-11-24T07:09:59.014Z,6.18
2022-11-24T07:12:25.609Z,5.53
2022-11-24T07:14:53.100Z,5.97
2022-11-24T07:17:19.942Z,5.80
2022-11-24T07:19:52.698Z,5.43
2022-11-24T07:22:36.272Z,4.03
2022-11-24T07:25:06.233Z,4.35
2022-11-24T07:27:48.829Z,5.68
2022-11-24T07:30:21.749Z,4.30
2022-11-24T07:32:49.236Z,4.25
2022-11-24T07:35:16.247Z,4.70
2022-11-24T07:38:01.172Z,4.28
2022-11-24T07:40:29.560Z,3.70
2022-11-24T07:43:00.605Z,3.60
2022-11-24T07:45:30.954Z,3.40
2022-11-24T07:47:58.196Z,3.40
2022-11-24T07:50:26.786Z,3.17
2022-11-24T07:53:10.406Z,3.25
2022-11-24T07:55:40.517Z,3.08
2022-11-24T07:58:16.472Z,3.13
2022-11-24T08:00:59.329Z,3.20
2022-11-24T08:03:30.881Z,3.13
2022-11-24T08:06:22.757Z,2.83
2022-11-24T08:08:50.773Z,3.47
2022-11-24T08:11:34.758Z,3.13
2022-11-24T08:14:05.081Z,3.00
2022-11-24T08:16:47.556Z,2.55
2022-11-24T08:19:27.444Z,3.38
2022-11-24T08:22:11.662Z,3.05
2022-11-24T08:25:26.925Z,3.30
2022-11-24T08:27:54.058Z,5.20
2022-11-24T08:30:27.498Z,3.80
2022-11-24T08:33:02.735Z,5.57
2022-11-24T08:35:53.027Z,3.55
2022-11-24T08:38:23.994Z,3.10
2022-11-24T08:41:02.804Z,3.15
2022-11-24T08:43:34.734Z,4.32
2022-11-24T08:49:12.893Z,2.97
2022-11-24T08:51:57.547Z,3.40
2022-11-24T08:54:36.188Z,3.53
2022-11-24T08:57:03.245Z,3.40
2022-11-24T08:59:34.075Z,3.88
2022-11-24T09:05:22.482Z,3.15
2022-11-24T09:08:06.975Z,2.70
2022-11-24T09:10:47.037Z,3.00
2022-11-24T09:13:37.637Z,3.15
2022-11-24T09:16:22.084Z,2.97
2022-11-24T09:19:26.658Z,3.25
2022-11-24T09:21:57.606Z,3.05
2022-11-24T09:24:48.983Z,3.35
2022-11-24T09:27:22.604Z,3.13
2022-11-24T09:30:02.451Z,3.47
2022-11-24T09:32:33.206Z,4.13
2022-11-24T09:35:06.654Z,2.85
2022-11-24T09:37:45.862Z,3.35
2022-11-24T09:40:22.357Z,4.10
2022-11-24T09:43:05.163Z,3.45
2022-11-24T09:46:05.021Z,3.95
2022-11-24T09:48:50.494Z,3.58
2022-11-24T09:51:31.090Z,3.42
2022-11-24T09:54:04.997Z,3.38
2022-11-24T09:56:35.073Z,4.47
2022-11-24T09:59:26.847Z,4.32
2022-11-24T10:01:54.546Z,3.10
2022-11-24T10:04:37.938Z,4.97
2022-11-24T10:07:12.770Z,5.10
2022-11-24T10:10:01.066Z,6.65
2022-11-24T10:13:05.298Z,7.22
2022-11-24T10:16:19.235Z,7.80
2022-11-24T10:19:22.818Z,7.78
2022-11-24T10:22:04.370Z,9.48
2022-11-24T10:25:19.537Z,7.72
2022-11-24T10:28:06.358Z,8.48
2022-11-24T10:30:39.533Z,7.57
2022-11-24T10:33:30.204Z,7.97
2022-11-24T10:36:24.451Z,6.85
2022-11-24T10:39:09.636Z,10.40
2022-11-24T10:42:04.323Z,10.43
2022-11-24T10:44:40.606Z,10.75
2022-11-24T10:47:23.023Z,10.90
2022-11-24T10:50:05.221Z,10.45
2022-11-24T10:52:48.406Z,9.95
2022-11-24T10:55:21.673Z,7.97
2022-11-24T10:57:51.767Z,9.95
2022-11-24T11:00:22.542Z,9.18
2022-11-24T11:02:52.256Z,10.50
2022-11-24T11:05:27.732Z,9.07
2022-11-24T11:08:23.337Z,8.85
2022-11-24T11:11:59.088Z,7.47
2022-11-24T11:14:35.781Z,9.80
2022-11-24T11:20:47.201Z,10.38
2022-11-24T11:23:29.117Z,9.93
2022-11-24T11:26:38.595Z,9.88
2022-11-24T11:38:38.475Z,9.20
2022-11-24T11:41:20.664Z,10.55
2022-11-24T11:43:59.334Z,9.73
2022-11-24T11:46:30.355Z,6.90
2022-11-24T11:48:57.313Z,8.35
2022-11-24T11:51:32.316Z,7.40
2022-11-24T11:54:16.598Z,7.82
2022-11-24T11:56:49.998Z,8.80
2022-11-24T12:00:00.976Z,9.35
2022-11-24T12:02:55.959Z,7.50
2022-11-24T12:06:05.377Z,8.38
2022-11-24T12:09:19.230Z,7.88
2022-11-24T12:12:23.025Z,9.05
2022-11-24T12:16:01.607Z,8.40
2022-11-24T12:21:50.152Z,8.45
2022-11-24T12:24:29.712Z,7.10
2022-11-24T12:27:06.004Z,8.75
2022-11-24T12:30:02.229Z,8.68
2022-11-24T12:33:07.498Z,8.50
2022-11-24T12:35:49.382Z,5.97
2022-11-24T12:38:44.080Z,5.95
2022-11-24T12:41:48.386Z,5.95
2022-11-24T12:44:57.230Z,7.30
2022-11-24T12:47:41.877Z,8.80
2022-11-24T12:50:17.569Z,5.88
2022-11-24T12:53:11.367Z,8.30
2022-11-24T12:55:46.330Z,6.30
2022-11-24T12:58:47.888Z,8.10
2022-11-24T13:01:27.643Z,8.77
2022-11-24T13:04:08.575Z,6.75
2022-11-24T13:06:51.403Z,9.20
2022-11-24T13:09:21.264Z,8.48
2022-11-24T13:12:14.652Z,7.93
2022-11-24T13:14:57.420Z,7.20
2022-11-24T13:17:52.480Z,6.75
2022-11-24T13:20:22.234Z,5.75
2022-11-24T13:23:15.153Z,8.73
2022-11-24T13:26:30.517Z,5.88
2022-11-24T13:29:23.840Z,5.78
2022-11-24T13:32:12.063Z,8.15
2022-11-24T13:35:00.092Z,8.57
2022-11-24T13:37:36.851Z,6.55
2022-11-24T13:40:31.787Z,5.47
2022-11-24T13:43:04.158Z,5.55
2022-11-24T13:46:01.952Z,6.82
2022-11-24T13:48:34.570Z,8.07
2022-11-24T13:51:01.919Z,5.82
2022-11-24T13:53:35.562Z,9.00
2022-11-24T13:56:20.505Z,6.10
2022-11-24T13:59:03.331Z,8.27
2022-11-24T14:01:37.076Z,9.73
2022-11-24T14:04:33.746Z,8.85
2022-11-24T14:07:13.091Z,8.18
2022-11-24T14:09:52.400Z,7.70
2022-11-24T14:12:26.674Z,5.20
2022-11-24T14:15:21.078Z,7.78
2022-11-24T14:17:49.105Z,9.38
2022-11-24T14:20:33.381Z,5.82
2022-11-24T14:23:05.619Z,5.93
2022-11-24T14:25:39.693Z,6.47
2022-11-24T14:28:25.289Z,8.05
2022-11-24T14:31:38.484Z,6.20
2022-11-24T14:34:18.647Z,7.10
2022-11-24T14:36:45.757Z,7.32
2022-11-24T14:39:20.522Z,5.70
2022-11-24T14:42:25.359Z,8.85
2022-11-24T14:45:00.774Z,7.60
2022-11-24T14:47:59.319Z,5.88
2022-11-24T14:50:30.907Z,9.95
2022-11-24T14:52:59.401Z,6.13
2022-11-24T14:55:38.443Z,10.32
2022-11-24T14:58:30.292Z,7.78
2022-11-24T15:01:30.716Z,9.68
2022-11-24T15:07:31.549Z,9.35
2022-11-24T15:10:04.495Z,11.13
2022-11-24T15:12:37.712Z,10.75
2022-11-24T15:15:04.477Z,5.65
2022-11-24T15:17:31.425Z,9.63
2022-11-24T15:20:08.150Z,11.10
2022-11-24T15:22:37.761Z,8.43
2022-11-24T15:25:26.194Z,10.80
2022-11-24T15:27:53.511Z,10.20
2022-11-24T15:30:20.322Z,10.93
2022-11-24T15:32:57.745Z,11.38
2022-11-24T15:35:27.569Z,11.05
2022-11-24T15:37:54.349Z,11.43
2022-11-24T15:40:24.379Z,9.23
2022-11-24T15:43:06.346Z,9.55
2022-11-24T15:45:34.517Z,5.45
2022-11-24T15:48:02.774Z,5.03
2022-11-24T15:50:33.037Z,8.40
2022-11-24T15:53:07.038Z,12.38
2022-11-24T15:55:37.808Z,12.77
2022-11-24T15:58:06.346Z,12.45
2022-11-24T16:00:45.905Z,13.88
2022-11-24T16:03:45.921Z,13.50
2022-11-24T16:06:02.571Z,11.95
2022-11-24T16:08:31.008Z,12.70
2022-11-24T16:11:03.733Z,12.82
2022-11-24T16:13:35.105Z,13.38
2022-11-24T16:16:02.111Z,13.23
2022-11-24T16:18:34.295Z,13.77
2022-11-24T16:21:10.606Z,15.30
2022-11-24T16:23:37.496Z,15.27
2022-11-24T16:26:13.075Z,13.93
2022-11-24T16:28:52.530Z,13.05
2022-11-24T16:31:23.097Z,11.93
2022-11-24T16:33:52.850Z,11.63
2022-11-24T16:36:30.827Z,11.63
2022-11-24T16:39:12.176Z,11.48
2022-11-24T16:41:41.275Z,11.53
2022-11-24T16:44:08.443Z,11.63
2022-11-24T16:46:44.751Z,11.93
2022-11-24T16:49:18.805Z,10.90
2022-11-24T16:51:49.048Z,10.40
2022-11-24T16:54:23.974Z,11.25
2022-11-24T16:56:50.655Z,12.10
2022-11-24T16:59:22.151Z,11.43
2022-11-24T17:02:19.083Z,12.53
2022-11-24T17:04:47.451Z,11.65
2022-11-24T17:07:16.635Z,12.10
2022-11-24T17:09:47.370Z,12.73
2022-11-24T17:12:16.916Z,11.55
2022-11-24T17:14:52.687Z,11.32
2022-11-24T17:17:55.111Z,11.38
2022-11-24T17:20:34.492Z,12.02
2022-11-24T17:23:07.554Z,11.20
2022-11-24T17:25:34.505Z,11.30
2022-11-24T17:28:05.167Z,12.07
2022-11-24T17:30:49.387Z,11.63
2022-11-24T17:33:29.183Z,18.75
2022-11-24T17:36:17.950Z,13.07
2022-11-24T17:38:54.510Z,11.88
2022-11-24T17:41:28.486Z,12.15
2022-11-24T17:43:59.426Z,13.57
2022-11-24T17:46:28.063Z,12.73
2022-11-24T17:48:55.214Z,14.02
2022-11-24T17:51:24.350Z,13.52
2022-11-24T17:53:52.477Z,13.07
2022-11-24T17:56:25.364Z,12.77
2022-11-24T17:58:55.467Z,12.77
2022-11-24T18:01:36.260Z,12.73
2022-11-24T18:04:07.623Z,13.10
2022-11-24T18:06:37.644Z,12.95
2022-11-24T18:09:28.545Z,12.50
2022-11-24T18:12:04.721Z,13.75
2022-11-24T18:14:37.373Z,13.70
2022-11-24T18:17:06.635Z,13.13
2022-11-24T18:19:34.047Z,10.18
2022-11-24T18:22:03.858Z,11.10
2022-11-24T18:24:31.850Z,12.75
2022-11-24T18:27:02.234Z,14.13
2022-11-24T18:29:29.272Z,13.15
2022-11-24T18:31:56.047Z,12.98
2022-11-24T18:34:24.874Z,13.18
2022-11-24T18:36:56.013Z,12.68
2022-11-24T18:39:22.776Z,14.00
2022-11-24T18:41:49.521Z,14.50
2022-11-24T18:44:16.375Z,12.95
2022-11-24T18:46:43.060Z,13.27
2022-11-24T18:49:09.912Z,12.60
2022-11-24T18:51:36.777Z,13.02
2022-11-24T18:54:05.650Z,13.38
2022-11-24T18:56:32.588Z,13.25
2022-11-24T18:58:59.280Z,13.35
2022-11-24T19:01:28.384Z,10.38
2022-11-24T19:03:58.194Z,12.13
2022-11-24T19:06:37.542Z,14.10
2022-11-24T19:09:09.971Z,12.85
2022-11-24T19:11:39.057Z,13.90
2022-11-24T19:14:10.363Z,13.98
2022-11-24T19:16:44.456Z,13.60
2022-11-24T19:19:12.793Z,12.38
2022-11-24T19:21:40.560Z,11.50
2022-11-24T19:24:14.714Z,13.68
2022-11-24T19:26:51.460Z,15.30
2022-11-24T19:29:18.357Z,14.48
2022-11-24T19:31:57.435Z,14.43
2022-11-24T19:34:46.439Z,11.77
2022-11-24T19:37:39.033Z,13.60
2022-11-24T19:40:12.836Z,9.80
2022-11-24T19:42:48.591Z,12.13
2022-11-24T19:45:31.631Z,12.82
2022-11-24T19:48:08.743Z,12.27
2022-11-24T19:50:44.962Z,10.50
2022-11-24T19:53:12.418Z,12.15
2022-11-24T19:55:45.179Z,12.30
2022-11-24T19:58:15.740Z,12.35
2022-11-24T20:01:00.683Z,12.00
2022-11-24T20:03:33.917Z,11.48
2022-11-24T20:06:19.872Z,12.45
2022-11-24T20:08:58.817Z,12.38
2022-11-24T20:11:26.178Z,13.30
2022-11-24T20:13:58.230Z,11.02
2022-11-24T20:16:40.958Z,12.63
2022-11-24T20:19:15.847Z,9.95
2022-11-24T20:21:51.988Z,12.80
2022-11-24T20:24:21.982Z,11.52
2022-11-24T20:26:52.340Z,13.18
2022-11-24T20:29:29.226Z,12.45
2022-11-24T20:31:57.767Z,9.45
2022-11-24T20:34:26.186Z,12.18
2022-11-24T20:36:53.241Z,12.52
2022-11-24T20:39:32.976Z,9.60
2022-11-24T20:42:08.527Z,11.82
2022-11-24T20:44:49.524Z,12.05
2022-11-24T20:47:20.750Z,13.02
2022-11-24T20:49:54.068Z,12.23
2022-11-24T20:52:27.951Z,12.10
2022-11-24T20:55:06.445Z,11.55
2022-11-24T20:57:40.849Z,12.25
2022-11-24T21:00:15.719Z,12.35
2022-11-24T21:02:43.219Z,12.15
2022-11-24T21:05:16.965Z,11.80
2022-11-24T21:07:59.751Z,12.18
2022-11-24T21:12:53.065Z,12.80
2022-11-24T21:15:24.354Z,11.68
2022-11-24T21:17:54.651Z,12.15
2022-11-24T21:20:32.965Z,10.88
2022-11-24T21:23:06.824Z,11.45
2022-11-24T21:25:36.816Z,11.80
2022-11-24T21:28:21.043Z,11.80
2022-11-24T21:31:06.237Z,10.95
2022-11-24T21:33:35.693Z,10.98
2022-11-24T21:36:12.549Z,11.00
2022-11-24T21:38:58.526Z,10.43
2022-11-24T21:41:35.504Z,10.50
2022-11-24T21:47:18.336Z,11.60
2022-11-24T21:50:00.356Z,13.32
2022-11-24T21:52:36.142Z,13.65
2022-11-24T21:55:19.986Z,12.25
2022-11-24T21:58:00.673Z,11.88
2022-11-24T22:00:33.008Z,12.63
2022-11-24T22:03:03.048Z,12.38
2022-11-24T22:05:34.652Z,12.77
2022-11-24T22:08:05.567Z,12.23
2022-11-24T22:10:38.587Z,12.30
2022-11-24T22:13:07.125Z,10.45
2022-11-24T22:15:33.774Z,10.20
2022-11-24T22:18:01.551Z,11.68
2022-11-24T22:20:28.272Z,9.68
2022-11-24T22:22:57.149Z,8.68
2022-11-24T22:25:24.017Z,9.00
2022-11-24T22:27:50.996Z,11.50
2022-11-24T22:30:21.338Z,11.65
2022-11-24T22:32:51.085Z,11.02
2022-11-24T22:35:29.826Z,8.65
2022-11-24T22:38:11.654Z,10.27
2022-11-24T22:40:46.082Z,10.20
2022-11-24T22:43:13.397Z,9.75
2022-11-24T22:49:23.664Z,10.27
2022-11-24T22:51:59.211Z,9.10
2022-11-24T22:54:44.021Z,9.98
2022-11-24T22:57:23.295Z,9.90
2022-11-24T23:00:04.915Z,9.95
2022-11-24T23:02:46.734Z,10.80
2022-11-24T23:05:20.930Z,11.07
2022-11-24T23:07:52.674Z,10.85
2022-11-24T23:10:22.470Z,12.33
2022-11-24T23:12:58.222Z,12.32
2022-11-24T23:18:20.692Z,12.52
2022-11-24T23:20:48.442Z,13.40
2022-11-24T23:23:21.524Z,13.55
2022-11-24T23:25:56.108Z,12.23
2022-11-24T23:28:46.803Z,10.75
2022-11-24T23:31:21.174Z,11.68
2022-11-24T23:33:53.811Z,11.52
2022-11-24T23:36:25.860Z,11.73
2022-11-24T23:38:53.044Z,11.33
2022-11-24T23:41:36.182Z,11.70
2022-11-24T23:44:06.225Z,11.15
2022-11-24T23:46:37.366Z,11.55
2022-11-24T23:49:09.927Z,12.35
2022-11-24T23:54:23.417Z,12.50
2022-11-24T23:57:12.389Z,11.80
2022-11-24T23:59:41.149Z,12.27
